sensor_id;sensor_type;location;lat;lon;timestamp;P1;durP1;ratioP1;P2;durP2;ratioP2
37455;SDS011;23316;50.718;7.328;2023-04-15T00:02:17;5.40;;;2.20;;
37455;SDS011;23316;50.718;7.328;2023-04-15T00:04:44;8.70;;;2.40;;
37455;SDS011;23316;50.718;7.328;2023-04-15T00:07:11;10.13;;;2.47;;
37455;SDS011;23316;50.718;7.328;2023-04-15T00:09:39;8.77;;;2.92;;
37455;SDS011;23316;50.718;7.328;2023-04-15T00:12:07;4.85;;;2.25;;
37455;SDS011;23316;50.718;7.328;2023-04-15T00:14:35;7.88;;;2.92;;
37455;SDS011;23316;50.718;7.328;2023-04-15T00:17:03;9.18;;;2.70;;
37455;SDS011;23316;50.718;7.328;2023-04-15T00:19:30;5.35;;;2.63;;
37455;SDS011;23316;50.718;7.328;2023-04-15T00:21:58;6.53;;;2.50;;
37455;SDS011;23316;50.718;7.328;2023-04-15T00:24:26;8.00;;;2.45;;
37455;SDS011;23316;50.718;7.328;2023-04-15T00:26:53;7.03;;;2.75;;
37455;SDS011;23316;50.718;7.328;2023-04-15T00:29:20;9.40;;;3.15;;
37455;SDS011;23316;50.718;7.328;2023-04-15T00:31:48;6.20;;;2.45;;
37455;SDS011;23316;50.718;7.328;2023-04-15T00:34:17;6.57;;;2.67;;
37455;SDS011;23316;50.718;7.328;2023-04-15T00:36:45;7.18;;;2.58;;
37455;SDS011;23316;50.718;7.328;2023-04-15T00:39:12;11.10;;;2.88;;
37455;SDS011;23316;50.718;7.328;2023-04-15T00:41:40;6.15;;;2.25;;
37455;SDS011;23316;50.718;7.328;2023-04-15T00:44:08;7.45;;;2.53;;
37455;SDS011;23316;50.718;7.328;2023-04-15T00:46:37;6.05;;;2.58;;
37455;SDS011;23316;50.718;7.328;2023-04-15T00:49:05;7.25;;;2.83;;
37455;SDS011;23316;50.718;7.328;2023-04-15T00:51:34;5.82;;;2.40;;
37455;SDS011;23316;50.718;7.328;2023-04-15T00:54:02;8.32;;;2.80;;
37455;SDS011;23316;50.718;7.328;2023-04-15T00:56:29;7.30;;;2.75;;
37455;SDS011;23316;50.718;7.328;2023-04-15T00:59:00;6.95;;;2.58;;
37455;SDS011;23316;50.718;7.328;2023-04-15T01:01:28;5.32;;;2.20;;
37455;SDS011;23316;50.718;7.328;2023-04-15T01:03:57;5.75;;;2.42;;
37455;SDS011;23316;50.718;7.328;2023-04-15T01:06:24;5.57;;;2.40;;
37455;SDS011;23316;50.718;7.328;2023-04-15T01:08:54;5.93;;;2.55;;
37455;SDS011;23316;50.718;7.328;2023-04-15T01:11:22;5.03;;;2.08;;
37455;SDS011;23316;50.718;7.328;2023-04-15T01:13:50;5.03;;;2.10;;
37455;SDS011;23316;50.718;7.328;2023-04-15T01:16:18;4.00;;;2.00;;
37455;SDS011;23316;50.718;7.328;2023-04-15T01:18:46;5.78;;;2.50;;
37455;SDS011;23316;50.718;7.328;2023-04-15T01:21:14;6.38;;;2.42;;
37455;SDS011;23316;50.718;7.328;2023-04-15T01:23:41;9.07;;;2.60;;
37455;SDS011;23316;50.718;7.328;2023-04-15T01:26:14;5.75;;;2.28;;
37455;SDS011;23316;50.718;7.328;2023-04-15T01:28:44;6.57;;;2.25;;
37455;SDS011;23316;50.718;7.328;2023-04-15T01:31:11;5.93;;;2.25;;
37455;SDS011;23316;50.718;7.328;2023-04-15T01:33:40;6.15;;;2.30;;
37455;SDS011;23316;50.718;7.328;2023-04-15T01:36:08;3.88;;;2.33;;
37455;SDS011;23316;50.718;7.328;2023-04-15T01:38:36;8.80;;;2.88;;
37455;SDS011;23316;50.718;7.328;2023-04-15T01:41:04;6.75;;;2.60;;
37455;SDS011;23316;50.718;7.328;2023-04-15T01:43:33;7.72;;;2.92;;
37455;SDS011;23316;50.718;7.328;2023-04-15T01:46:01;4.53;;;2.47;;
37455;SDS011;23316;50.718;7.328;2023-04-15T01:48:29;7.82;;;2.47;;
37455;SDS011;23316;50.718;7.328;2023-04-15T01:50:58;7.28;;;2.58;;
37455;SDS011;23316;50.718;7.328;2023-04-15T01:53:25;5.95;;;2.50;;
37455;SDS011;23316;50.718;7.328;2023-04-15T01:55:52;4.00;;;2.30;;
37455;SDS011;23316;50.718;7.328;2023-04-15T01:58:20;9.00;;;2.25;;
37455;SDS011;23316;50.718;7.328;2023-04-15T02:00:50;7.70;;;2.42;;
37455;SDS011;23316;50.718;7.328;2023-04-15T02:03:18;5.68;;;2.40;;
37455;SDS011;23316;50.718;7.328;2023-04-15T02:05:45;8.02;;;2.33;;
37455;SDS011;23316;50.718;7.328;2023-04-15T02:08:12;5.45;;;2.33;;
37455;SDS011;23316;50.718;7.328;2023-04-15T02:10:40;6.55;;;2.45;;
37455;SDS011;23316;50.718;7.328;2023-04-15T02:13:18;5.97;;;2.22;;
37455;SDS011;23316;50.718;7.328;2023-04-15T02:15:46;7.15;;;2.60;;
37455;SDS011;23316;50.718;7.328;2023-04-15T02:18:15;6.20;;;2.13;;
37455;SDS011;23316;50.718;7.328;2023-04-15T02:20:42;7.35;;;2.35;;
37455;SDS011;23316;50.718;7.328;2023-04-15T02:23:13;5.55;;;2.30;;
37455;SDS011;23316;50.718;7.328;2023-04-15T02:25:40;7.00;;;2.42;;
37455;SDS011;23316;50.718;7.328;2023-04-15T02:28:07;3.50;;;1.80;;
37455;SDS011;23316;50.718;7.328;2023-04-15T02:30:35;8.30;;;2.67;;
37455;SDS011;23316;50.718;7.328;2023-04-15T02:33:02;5.82;;;2.40;;
37455;SDS011;23316;50.718;7.328;2023-04-15T02:35:32;8.70;;;2.80;;
37455;SDS011;23316;50.718;7.328;2023-04-15T02:38:00;5.85;;;2.70;;
37455;SDS011;23316;50.718;7.328;2023-04-15T02:40:28;7.20;;;2.70;;
37455;SDS011;23316;50.718;7.328;2023-04-15T02:42:55;4.88;;;2.55;;
37455;SDS011;23316;50.718;7.328;2023-04-15T02:45:22;7.28;;;2.80;;
37455;SDS011;23316;50.718;7.328;2023-04-15T02:47:52;7.32;;;2.70;;
37455;SDS011;23316;50.718;7.328;2023-04-15T02:50:19;7.95;;;3.17;;
37455;SDS011;23316;50.718;7.328;2023-04-15T02:52:49;6.78;;;2.55;;
37455;SDS011;23316;50.718;7.328;2023-04-15T02:55:16;5.30;;;2.83;;
37455;SDS011;23316;50.718;7.328;2023-04-15T02:57:46;6.25;;;2.70;;
37455;SDS011;23316;50.718;7.328;2023-04-15T03:00:14;6.57;;;2.53;;
37455;SDS011;23316;50.718;7.328;2023-04-15T03:02:41;10.40;;;2.63;;
37455;SDS011;23316;50.718;7.328;2023-04-15T03:05:14;5.32;;;2.67;;
37455;SDS011;23316;50.718;7.328;2023-04-15T03:07:41;9.60;;;2.90;;
37455;SDS011;23316;50.718;7.328;2023-04-15T03:10:11;8.20;;;3.17;;
37455;SDS011;23316;50.718;7.328;2023-04-15T03:12:38;8.10;;;3.13;;
37455;SDS011;23316;50.718;7.328;2023-04-15T03:15:07;5.93;;;2.53;;
37455;SDS011;23316;50.718;7.328;2023-04-15T03:17:35;5.90;;;2.58;;
37455;SDS011;23316;50.718;7.328;2023-04-15T03:20:03;7.63;;;2.72;;
37455;SDS011;23316;50.718;7.328;2023-04-15T03:22:32;5.05;;;2.55;;
37455;SDS011;23316;50.718;7.328;2023-04-15T03:24:59;4.55;;;1.98;;
37455;SDS011;23316;50.718;7.328;2023-04-15T03:27:27;5.57;;;2.55;;
37455;SDS011;23316;50.718;7.328;2023-04-15T03:29:55;6.13;;;2.30;;
37455;SDS011;23316;50.718;7.328;2023-04-15T03:32:23;8.73;;;3.10;;
37455;SDS011;23316;50.718;7.328;2023-04-15T03:34:50;7.70;;;2.60;;
37455;SDS011;23316;50.718;7.328;2023-04-15T03:37:17;5.05;;;2.20;;
37455;SDS011;23316;50.718;7.328;2023-04-15T03:39:44;6.55;;;2.25;;
37455;SDS011;23316;50.718;7.328;2023-04-15T03:42:12;7.35;;;2.90;;
37455;SDS011;23316;50.718;7.328;2023-04-15T03:44:40;5.25;;;2.30;;
37455;SDS011;23316;50.718;7.328;2023-04-15T03:47:08;8.88;;;3.00;;
37455;SDS011;23316;50.718;7.328;2023-04-15T03:49:35;6.80;;;2.65;;
37455;SDS011;23316;50.718;7.328;2023-04-15T03:52:03;7.88;;;2.90;;
37455;SDS011;23316;50.718;7.328;2023-04-15T03:54:30;6.40;;;2.72;;
37455;SDS011;23316;50.718;7.328;2023-04-15T03:56:57;7.78;;;2.50;;
37455;SDS011;23316;50.718;7.328;2023-04-15T03:59:26;4.80;;;2.13;;
37455;SDS011;23316;50.718;7.328;2023-04-15T04:01:54;8.88;;;2.75;;
37455;SDS011;23316;50.718;7.328;2023-04-15T04:04:22;8.77;;;2.92;;
37455;SDS011;23316;50.718;7.328;2023-04-15T04:06:49;5.00;;;2.38;;
37455;SDS011;23316;50.718;7.328;2023-04-15T04:09:16;12.43;;;3.30;;
37455;SDS011;23316;50.718;7.328;2023-04-15T04:11:43;7.70;;;2.60;;
37455;SDS011;23316;50.718;7.328;2023-04-15T04:14:14;5.03;;;2.42;;
37455;SDS011;23316;50.718;7.328;2023-04-15T04:16:41;10.13;;;2.78;;
37455;SDS011;23316;50.718;7.328;2023-04-15T04:19:10;5.15;;;2.60;;
37455;SDS011;23316;50.718;7.328;2023-04-15T04:21:39;6.28;;;2.50;;
37455;SDS011;23316;50.718;7.328;2023-04-15T04:24:06;5.47;;;2.80;;
37455;SDS011;23316;50.718;7.328;2023-04-15T04:26:33;7.25;;;3.00;;
37455;SDS011;23316;50.718;7.328;2023-04-15T04:29:00;8.02;;;3.30;;
37455;SDS011;23316;50.718;7.328;2023-04-15T04:31:28;5.70;;;2.63;;
37455;SDS011;23316;50.718;7.328;2023-04-15T04:33:55;7.47;;;2.50;;
37455;SDS011;23316;50.718;7.328;2023-04-15T04:36:24;8.05;;;3.05;;
37455;SDS011;23316;50.718;7.328;2023-04-15T04:38:51;5.68;;;2.78;;
37455;SDS011;23316;50.718;7.328;2023-04-15T04:41:19;8.10;;;2.67;;
37455;SDS011;23316;50.718;7.328;2023-04-15T04:43:46;6.70;;;2.40;;
37455;SDS011;23316;50.718;7.328;2023-04-15T04:46:13;5.65;;;2.80;;
37455;SDS011;23316;50.718;7.328;2023-04-15T04:48:40;5.72;;;2.90;;
37455;SDS011;23316;50.718;7.328;2023-04-15T04:51:08;5.18;;;2.60;;
37455;SDS011;23316;50.718;7.328;2023-04-15T04:53:37;6.75;;;2.42;;
37455;SDS011;23316;50.718;7.328;2023-04-15T04:56:04;6.65;;;2.42;;
37455;SDS011;23316;50.718;7.328;2023-04-15T04:58:34;9.82;;;3.40;;
37455;SDS011;23316;50.718;7.328;2023-04-15T05:01:02;8.32;;;3.30;;
37455;SDS011;23316;50.718;7.328;2023-04-15T05:03:30;6.35;;;2.85;;
37455;SDS011;23316;50.718;7.328;2023-04-15T05:05:57;4.75;;;2.63;;
37455;SDS011;23316;50.718;7.328;2023-04-15T05:08:24;9.05;;;3.50;;
37455;SDS011;23316;50.718;7.328;2023-04-15T05:10:53;10.10;;;3.30;;
37455;SDS011;23316;50.718;7.328;2023-04-15T05:13:20;5.25;;;2.70;;
37455;SDS011;23316;50.718;7.328;2023-04-15T05:15:47;8.32;;;3.72;;
37455;SDS011;23316;50.718;7.328;2023-04-15T05:18:15;7.55;;;3.00;;
37455;SDS011;23316;50.718;7.328;2023-04-15T05:20:42;7.75;;;2.92;;
37455;SDS011;23316;50.718;7.328;2023-04-15T05:23:11;6.47;;;2.78;;
37455;SDS011;23316;50.718;7.328;2023-04-15T05:25:38;4.88;;;2.20;;
37455;SDS011;23316;50.718;7.328;2023-04-15T05:28:07;6.55;;;2.83;;
37455;SDS011;23316;50.718;7.328;2023-04-15T05:30:34;8.55;;;2.97;;
37455;SDS011;23316;50.718;7.328;2023-04-15T05:33:01;5.85;;;2.70;;
37455;SDS011;23316;50.718;7.328;2023-04-15T05:35:29;7.63;;;2.80;;
37455;SDS011;23316;50.718;7.328;2023-04-15T05:37:57;5.57;;;2.42;;
37455;SDS011;23316;50.718;7.328;2023-04-15T05:40:25;5.75;;;2.67;;
37455;SDS011;23316;50.718;7.328;2023-04-15T05:42:52;8.90;;;2.70;;
37455;SDS011;23316;50.718;7.328;2023-04-15T05:45:22;6.70;;;2.60;;
37455;SDS011;23316;50.718;7.328;2023-04-15T05:47:50;5.63;;;2.78;;
37455;SDS011;23316;50.718;7.328;2023-04-15T05:50:18;6.85;;;2.63;;
37455;SDS011;23316;50.718;7.328;2023-04-15T05:52:47;7.30;;;2.40;;
37455;SDS011;23316;50.718;7.328;2023-04-15T05:55:14;6.88;;;2.78;;
37455;SDS011;23316;50.718;7.328;2023-04-15T05:57:42;6.03;;;2.50;;
37455;SDS011;23316;50.718;7.328;2023-04-15T06:00:10;6.03;;;2.88;;
37455;SDS011;23316;50.718;7.328;2023-04-15T06:02:41;8.27;;;2.63;;
37455;SDS011;23316;50.718;7.328;2023-04-15T06:05:10;10.07;;;2.70;;
37455;SDS011;23316;50.718;7.328;2023-04-15T06:07:38;7.18;;;3.20;;
37455;SDS011;23316;50.718;7.328;2023-04-15T06:10:06;9.13;;;3.80;;
37455;SDS011;23316;50.718;7.328;2023-04-15T06:12:33;8.98;;;3.67;;
37455;SDS011;23316;50.718;7.328;2023-04-15T06:15:01;12.35;;;3.67;;
37455;SDS011;23316;50.718;7.328;2023-04-15T06:17:28;9.30;;;3.80;;
37455;SDS011;23316;50.718;7.328;2023-04-15T06:19:59;9.18;;;3.50;;
37455;SDS011;23316;50.718;7.328;2023-04-15T06:22:26;9.27;;;2.80;;
37455;SDS011;23316;50.718;7.328;2023-04-15T06:24:54;8.15;;;3.53;;
37455;SDS011;23316;50.718;7.328;2023-04-15T06:27:21;8.20;;;3.30;;
37455;SDS011;23316;50.718;7.328;2023-04-15T06:29:48;11.07;;;6.28;;
37455;SDS011;23316;50.718;7.328;2023-04-15T06:32:15;12.05;;;3.80;;
37455;SDS011;23316;50.718;7.328;2023-04-15T06:34:43;10.27;;;4.55;;
37455;SDS011;23316;50.718;7.328;2023-04-15T06:37:14;10.07;;;4.35;;
37455;SDS011;23316;50.718;7.328;2023-04-15T06:39:41;10.82;;;4.93;;
37455;SDS011;23316;50.718;7.328;2023-04-15T06:42:09;9.75;;;4.30;;
37455;SDS011;23316;50.718;7.328;2023-04-15T06:44:36;7.53;;;4.10;;
37455;SDS011;23316;50.718;7.328;2023-04-15T06:47:04;9.23;;;4.60;;
37455;SDS011;23316;50.718;7.328;2023-04-15T06:49:31;7.80;;;4.60;;
37455;SDS011;23316;50.718;7.328;2023-04-15T06:51:59;13.15;;;5.57;;
37455;SDS011;23316;50.718;7.328;2023-04-15T06:54:28;16.88;;;5.90;;
37455;SDS011;23316;50.718;7.328;2023-04-15T06:56:55;9.60;;;5.25;;
37455;SDS011;23316;50.718;7.328;2023-04-15T06:59:22;6.97;;;4.78;;
37455;SDS011;23316;50.718;7.328;2023-04-15T07:01:50;15.52;;;4.80;;
37455;SDS011;23316;50.718;7.328;2023-04-15T07:04:17;10.10;;;5.45;;
37455;SDS011;23316;50.718;7.328;2023-04-15T07:06:44;9.90;;;4.70;;
37455;SDS011;23316;50.718;7.328;2023-04-15T07:09:12;8.20;;;5.05;;
37455;SDS011;23316;50.718;7.328;2023-04-15T07:11:41;13.00;;;5.88;;
37455;SDS011;23316;50.718;7.328;2023-04-15T07:14:08;10.77;;;5.97;;
37455;SDS011;23316;50.718;7.328;2023-04-15T07:16:36;9.73;;;5.53;;
37455;SDS011;23316;50.718;7.328;2023-04-15T07:19:03;9.60;;;5.40;;
37455;SDS011;23316;50.718;7.328;2023-04-15T07:21:30;7.65;;;4.93;;
37455;SDS011;23316;50.718;7.328;2023-04-15T07:23:58;9.98;;;5.43;;
37455;SDS011;23316;50.718;7.328;2023-04-15T07:26:25;11.82;;;6.30;;
37455;SDS011;23316;50.718;7.328;2023-04-15T07:28:53;15.07;;;5.28;;
37455;SDS011;23316;50.718;7.328;2023-04-15T07:31:21;10.65;;;6.00;;
37455;SDS011;23316;50.718;7.328;2023-04-15T07:33:48;12.90;;;5.97;;
37455;SDS011;23316;50.718;7.328;2023-04-15T07:36:15;12.38;;;6.00;;
37455;SDS011;23316;50.718;7.328;2023-04-15T07:38:43;13.30;;;5.90;;
37455;SDS011;23316;50.718;7.328;2023-04-15T07:41:10;10.02;;;5.90;;
37455;SDS011;23316;50.718;7.328;2023-04-15T07:43:38;9.55;;;5.55;;
37455;SDS011;23316;50.718;7.328;2023-04-15T07:46:06;11.88;;;6.15;;
37455;SDS011;23316;50.718;7.328;2023-04-15T07:48:34;9.63;;;5.70;;
37455;SDS011;23316;50.718;7.328;2023-04-15T07:51:01;15.43;;;6.38;;
37455;SDS011;23316;50.718;7.328;2023-04-15T07:53:28;12.10;;;6.55;;
37455;SDS011;23316;50.718;7.328;2023-04-15T07:55:57;11.15;;;5.78;;
37455;SDS011;23316;50.718;7.328;2023-04-15T07:58:25;11.00;;;6.20;;
37455;SDS011;23316;50.718;7.328;2023-04-15T08:00:52;9.20;;;5.68;;
37455;SDS011;23316;50.718;7.328;2023-04-15T08:03:22;10.95;;;5.60;;
37455;SDS011;23316;50.718;7.328;2023-04-15T08:05:50;10.20;;;5.50;;
37455;SDS011;23316;50.718;7.328;2023-04-15T08:08:18;12.65;;;6.10;;
37455;SDS011;23316;50.718;7.328;2023-04-15T08:10:48;9.88;;;5.75;;
37455;SDS011;23316;50.718;7.328;2023-04-15T08:13:16;9.82;;;5.45;;
37455;SDS011;23316;50.718;7.328;2023-04-15T08:15:43;9.20;;;5.65;;
37455;SDS011;23316;50.718;7.328;2023-04-15T08:18:11;12.05;;;5.82;;
37455;SDS011;23316;50.718;7.328;2023-04-15T08:20:39;8.25;;;5.03;;
37455;SDS011;23316;50.718;7.328;2023-04-15T08:23:07;14.57;;;5.93;;
37455;SDS011;23316;50.718;7.328;2023-04-15T08:25:34;11.75;;;6.10;;
37455;SDS011;23316;50.718;7.328;2023-04-15T08:28:03;8.60;;;5.45;;
37455;SDS011;23316;50.718;7.328;2023-04-15T08:30:31;9.57;;;5.47;;
37455;SDS011;23316;50.718;7.328;2023-04-15T08:32:59;9.75;;;4.93;;
37455;SDS011;23316;50.718;7.328;2023-04-15T08:35:26;12.55;;;5.38;;
37455;SDS011;23316;50.718;7.328;2023-04-15T08:37:55;10.20;;;5.97;;
37455;SDS011;23316;50.718;7.328;2023-04-15T08:40:22;9.70;;;5.32;;
37455;SDS011;23316;50.718;7.328;2023-04-15T08:42:54;11.88;;;5.20;;
37455;SDS011;23316;50.718;7.328;2023-04-15T08:45:24;11.35;;;4.82;;
37455;SDS011;23316;50.718;7.328;2023-04-15T08:47:51;8.35;;;5.32;;
37455;SDS011;23316;50.718;7.328;2023-04-15T08:50:21;7.80;;;4.82;;
37455;SDS011;23316;50.718;7.328;2023-04-15T08:52:52;10.93;;;3.92;;
37455;SDS011;23316;50.718;7.328;2023-04-15T08:55:21;9.93;;;4.68;;
37455;SDS011;23316;50.718;7.328;2023-04-15T08:57:50;15.15;;;6.53;;
37455;SDS011;23316;50.718;7.328;2023-04-15T09:00:17;10.48;;;4.88;;
37455;SDS011;23316;50.718;7.328;2023-04-15T09:02:45;5.82;;;3.20;;
37455;SDS011;23316;50.718;7.328;2023-04-15T09:05:15;4.63;;;2.55;;
37455;SDS011;23316;50.718;7.328;2023-04-15T09:07:43;3.63;;;2.08;;
37455;SDS011;23316;50.718;7.328;2023-04-15T09:10:12;3.35;;;1.98;;
37455;SDS011;23316;50.718;7.328;2023-04-15T09:12:39;4.10;;;1.40;;
37455;SDS011;23316;50.718;7.328;2023-04-15T09:15:06;4.60;;;1.73;;
37455;SDS011;23316;50.718;7.328;2023-04-15T09:17:36;5.30;;;1.70;;
37455;SDS011;23316;50.718;7.328;2023-04-15T09:20:09;1.55;;;1.45;;
37455;SDS011;23316;50.718;7.328;2023-04-15T09:22:38;4.03;;;1.60;;
37455;SDS011;23316;50.718;7.328;2023-04-15T09:25:16;2.78;;;1.42;;
37455;SDS011;23316;50.718;7.328;2023-04-15T09:27:52;2.40;;;1.20;;
37455;SDS011;23316;50.718;7.328;2023-04-15T09:46:51;10.77;;;5.53;;
37455;SDS011;23316;50.718;7.328;2023-04-15T09:49:18;3.35;;;1.80;;
37455;SDS011;23316;50.718;7.328;2023-04-15T09:51:45;3.97;;;1.40;;
37455;SDS011;23316;50.718;7.328;2023-04-15T09:54:17;5.60;;;2.00;;
37455;SDS011;23316;50.718;7.328;2023-04-15T09:56:45;4.18;;;2.30;;
37455;SDS011;23316;50.718;7.328;2023-04-15T09:59:13;3.20;;;1.60;;
37455;SDS011;23316;50.718;7.328;2023-04-15T10:01:41;5.88;;;3.22;;
37455;SDS011;23316;50.718;7.328;2023-04-15T10:04:09;3.13;;;2.25;;
37455;SDS011;23316;50.718;7.328;2023-04-15T10:06:36;2.88;;;2.40;;
37455;SDS011;23316;50.718;7.328;2023-04-15T10:09:05;2.65;;;1.30;;
37455;SDS011;23316;50.718;7.328;2023-04-15T10:11:33;2.25;;;1.30;;
37455;SDS011;23316;50.718;7.328;2023-04-15T10:14:01;7.18;;;4.53;;
37455;SDS011;23316;50.718;7.328;2023-04-15T10:16:28;8.35;;;5.57;;
37455;SDS011;23316;50.718;7.328;2023-04-15T10:19:00;2.65;;;1.73;;
37455;SDS011;23316;50.718;7.328;2023-04-15T10:21:29;3.70;;;1.77;;
37455;SDS011;23316;50.718;7.328;2023-04-15T10:23:57;6.60;;;4.18;;
37455;SDS011;23316;50.718;7.328;2023-04-15T10:26:24;4.25;;;2.67;;
37455;SDS011;23316;50.718;7.328;2023-04-15T10:28:52;3.08;;;1.98;;
37455;SDS011;23316;50.718;7.328;2023-04-15T10:31:20;1.90;;;1.25;;
37455;SDS011;23316;50.718;7.328;2023-04-15T10:33:49;2.30;;;1.50;;
37455;SDS011;23316;50.718;7.328;2023-04-15T10:36:19;2.85;;;1.58;;
37455;SDS011;23316;50.718;7.328;2023-04-15T10:38:47;1.27;;;1.05;;
37455;SDS011;23316;50.718;7.328;2023-04-15T10:41:15;1.75;;;1.15;;
37455;SDS011;23316;50.718;7.328;2023-04-15T10:43:44;2.25;;;1.20;;
37455;SDS011;23316;50.718;7.328;2023-04-15T10:46:15;4.18;;;1.60;;
37455;SDS011;23316;50.718;7.328;2023-04-15T10:48:48;5.57;;;3.00;;
37455;SDS011;23316;50.718;7.328;2023-04-15T10:51:27;4.25;;;2.22;;
37455;SDS011;23316;50.718;7.328;2023-04-15T10:53:56;2.42;;;1.73;;
37455;SDS011;23316;50.718;7.328;2023-04-15T10:56:26;3.33;;;1.90;;
37455;SDS011;23316;50.718;7.328;2023-04-15T10:58:54;15.98;;;10.13;;
37455;SDS011;23316;50.718;7.328;2023-04-15T11:01:27;4.00;;;1.90;;
37455;SDS011;23316;50.718;7.328;2023-04-15T11:13:25;3.47;;;2.30;;
37455;SDS011;23316;50.718;7.328;2023-04-15T11:16:00;4.75;;;2.72;;
37455;SDS011;23316;50.718;7.328;2023-04-15T11:18:29;4.45;;;2.88;;
37455;SDS011;23316;50.718;7.328;2023-04-15T11:20:58;3.72;;;2.83;;
37455;SDS011;23316;50.718;7.328;2023-04-15T11:23:28;5.55;;;3.20;;
37455;SDS011;23316;50.718;7.328;2023-04-15T11:25:59;4.70;;;3.05;;
37455;SDS011;23316;50.718;7.328;2023-04-15T11:28:28;3.97;;;3.33;;
37455;SDS011;23316;50.718;7.328;2023-04-15T11:30:56;4.85;;;3.22;;
37455;SDS011;23316;50.718;7.328;2023-04-15T11:33:24;5.38;;;3.55;;
37455;SDS011;23316;50.718;7.328;2023-04-15T11:35:52;5.18;;;3.88;;
37455;SDS011;23316;50.718;7.328;2023-04-15T11:38:20;6.82;;;4.28;;
37455;SDS011;23316;50.718;7.328;2023-04-15T11:40:49;7.38;;;5.10;;
37455;SDS011;23316;50.718;7.328;2023-04-15T11:43:18;6.43;;;5.22;;
37455;SDS011;23316;50.718;7.328;2023-04-15T11:45:47;6.15;;;4.93;;
37455;SDS011;23316;50.718;7.328;2023-04-15T11:48:19;6.20;;;4.65;;
37455;SDS011;23316;50.718;7.328;2023-04-15T11:50:51;6.95;;;5.10;;
37455;SDS011;23316;50.718;7.328;2023-04-15T11:53:20;4.80;;;4.30;;
37455;SDS011;23316;50.718;7.328;2023-04-15T11:55:50;7.13;;;4.47;;
37455;SDS011;23316;50.718;7.328;2023-04-15T11:58:19;6.93;;;4.75;;
37455;SDS011;23316;50.718;7.328;2023-04-15T12:00:48;4.70;;;3.88;;
37455;SDS011;23316;50.718;7.328;2023-04-15T12:03:20;5.35;;;3.42;;
37455;SDS011;23316;50.718;7.328;2023-04-15T12:06:06;4.97;;;4.15;;
37455;SDS011;23316;50.718;7.328;2023-04-15T12:08:54;4.32;;;3.72;;
37455;SDS011;23316;50.718;7.328;2023-04-15T12:11:28;5.32;;;4.65;;
37455;SDS011;23316;50.718;7.328;2023-04-15T12:13:57;6.10;;;4.70;;
37455;SDS011;23316;50.718;7.328;2023-04-15T12:16:28;5.22;;;4.30;;
37455;SDS011;23316;50.718;7.328;2023-04-15T12:18:56;5.50;;;4.45;;
37455;SDS011;23316;50.718;7.328;2023-04-15T12:21:25;5.38;;;4.55;;
37455;SDS011;23316;50.718;7.328;2023-04-15T12:23:55;5.90;;;4.50;;
37455;SDS011;23316;50.718;7.328;2023-04-15T12:26:26;7.13;;;3.90;;
37455;SDS011;23316;50.718;7.328;2023-04-15T12:28:59;4.78;;;3.67;;
37455;SDS011;23316;50.718;7.328;2023-04-15T12:31:27;5.25;;;3.80;;
37455;SDS011;23316;50.718;7.328;2023-04-15T12:33:55;6.07;;;4.20;;
37455;SDS011;23316;50.718;7.328;2023-04-15T12:36:23;11.63;;;5.15;;
37455;SDS011;23316;50.718;7.328;2023-04-15T12:38:50;6.57;;;4.65;;
37455;SDS011;23316;50.718;7.328;2023-04-15T12:41:19;6.22;;;4.78;;
37455;SDS011;23316;50.718;7.328;2023-04-15T12:43:48;7.18;;;4.57;;
37455;SDS011;23316;50.718;7.328;2023-04-15T12:46:15;5.65;;;4.05;;
37455;SDS011;23316;50.718;7.328;2023-04-15T12:48:43;4.35;;;3.95;;
37455;SDS011;23316;50.718;7.328;2023-04-15T12:51:10;5.55;;;4.22;;
37455;SDS011;23316;50.718;7.328;2023-04-15T12:53:37;5.30;;;4.15;;
37455;SDS011;23316;50.718;7.328;2023-04-15T12:56:05;5.63;;;3.80;;
37455;SDS011;23316;50.718;7.328;2023-04-15T12:58:32;5.45;;;4.38;;
37455;SDS011;23316;50.718;7.328;2023-04-15T13:01:01;8.65;;;4.43;;
37455;SDS011;23316;50.718;7.328;2023-04-15T13:03:28;5.75;;;4.25;;
37455;SDS011;23316;50.718;7.328;2023-04-15T13:05:55;6.85;;;4.55;;
37455;SDS011;23316;50.718;7.328;2023-04-15T13:08:23;5.13;;;4.13;;
37455;SDS011;23316;50.718;7.328;2023-04-15T13:10:50;4.97;;;3.97;;
37455;SDS011;23316;50.718;7.328;2023-04-15T13:13:18;5.60;;;4.07;;
37455;SDS011;23316;50.718;7.328;2023-04-15T13:15:45;7.80;;;4.88;;
37455;SDS011;23316;50.718;7.328;2023-04-15T13:18:14;6.80;;;4.70;;
37455;SDS011;23316;50.718;7.328;2023-04-15T13:20:41;5.68;;;4.82;;
37455;SDS011;23316;50.718;7.328;2023-04-15T13:23:08;6.10;;;4.88;;
37455;SDS011;23316;50.718;7.328;2023-04-15T13:25:36;8.40;;;5.28;;
37455;SDS011;23316;50.718;7.328;2023-04-15T13:28:03;8.45;;;5.25;;
37455;SDS011;23316;50.718;7.328;2023-04-15T13:30:30;7.00;;;5.00;;
37455;SDS011;23316;50.718;7.328;2023-04-15T13:32:57;14.05;;;4.80;;
37455;SDS011;23316;50.718;7.328;2023-04-15T13:35:26;9.27;;;6.00;;
37455;SDS011;23316;50.718;7.328;2023-04-15T13:37:53;9.05;;;5.72;;
37455;SDS011;23316;50.718;7.328;2023-04-15T13:40:21;7.93;;;5.78;;
37455;SDS011;23316;50.718;7.328;2023-04-15T13:42:48;8.13;;;6.18;;
37455;SDS011;23316;50.718;7.328;2023-04-15T13:45:16;9.85;;;6.03;;
37455;SDS011;23316;50.718;7.328;2023-04-15T13:47:43;7.35;;;6.03;;
37455;SDS011;23316;50.718;7.328;2023-04-15T13:50:11;9.52;;;6.78;;
37455;SDS011;23316;50.718;7.328;2023-04-15T13:52:39;8.82;;;6.43;;
37455;SDS011;23316;50.718;7.328;2023-04-15T13:55:07;8.57;;;6.38;;
37455;SDS011;23316;50.718;7.328;2023-04-15T13:57:35;7.45;;;6.00;;
37455;SDS011;23316;50.718;7.328;2023-04-15T14:00:02;7.68;;;5.55;;
37455;SDS011;23316;50.718;7.328;2023-04-15T14:02:30;9.63;;;5.68;;
37455;SDS011;23316;50.718;7.328;2023-04-15T14:04:57;8.55;;;5.82;;
37455;SDS011;23316;50.718;7.328;2023-04-15T14:07:25;7.65;;;5.90;;
37455;SDS011;23316;50.718;7.328;2023-04-15T14:09:55;8.38;;;6.05;;
37455;SDS011;23316;50.718;7.328;2023-04-15T14:12:23;7.70;;;5.95;;
37455;SDS011;23316;50.718;7.328;2023-04-15T14:14:50;7.78;;;6.18;;
37455;SDS011;23316;50.718;7.328;2023-04-15T14:17:17;9.50;;;6.90;;
37455;SDS011;23316;50.718;7.328;2023-04-15T14:19:44;8.18;;;6.55;;
37455;SDS011;23316;50.718;7.328;2023-04-15T14:22:12;8.77;;;6.70;;
37455;SDS011;23316;50.718;7.328;2023-04-15T14:24:39;9.80;;;7.18;;
37455;SDS011;23316;50.718;7.328;2023-04-15T14:27:07;9.57;;;7.20;;
37455;SDS011;23316;50.718;7.328;2023-04-15T14:29:36;9.02;;;6.65;;
37455;SDS011;23316;50.718;7.328;2023-04-15T14:32:04;9.88;;;7.10;;
37455;SDS011;23316;50.718;7.328;2023-04-15T14:34:32;9.90;;;6.90;;
37455;SDS011;23316;50.718;7.328;2023-04-15T14:36:59;8.32;;;6.32;;
37455;SDS011;23316;50.718;7.328;2023-04-15T14:39:28;10.32;;;6.80;;
37455;SDS011;23316;50.718;7.328;2023-04-15T14:41:55;10.43;;;7.53;;
37455;SDS011;23316;50.718;7.328;2023-04-15T14:44:23;9.23;;;6.78;;
37455;SDS011;23316;50.718;7.328;2023-04-15T14:46:51;9.65;;;7.28;;
37455;SDS011;23316;50.718;7.328;2023-04-15T14:49:19;9.85;;;6.97;;
37455;SDS011;23316;50.718;7.328;2023-04-15T14:51:47;11.93;;;7.75;;
37455;SDS011;23316;50.718;7.328;2023-04-15T14:54:14;9.73;;;7.82;;
37455;SDS011;23316;50.718;7.328;2023-04-15T14:56:42;12.25;;;8.98;;
37455;SDS011;23316;50.718;7.328;2023-04-15T14:59:09;10.23;;;7.90;;
37455;SDS011;23316;50.718;7.328;2023-04-15T15:01:37;10.60;;;8.50;;
37455;SDS011;23316;50.718;7.328;2023-04-15T15:04:05;12.32;;;8.90;;
37455;SDS011;23316;50.718;7.328;2023-04-15T15:06:33;10.95;;;8.80;;
37455;SDS011;23316;50.718;7.328;2023-04-15T15:09:00;13.60;;;10.68;;
37455;SDS011;23316;50.718;7.328;2023-04-15T15:11:27;12.45;;;9.82;;
37455;SDS011;23316;50.718;7.328;2023-04-15T15:13:55;11.43;;;9.65;;
37455;SDS011;23316;50.718;7.328;2023-04-15T15:16:22;14.05;;;10.05;;
37455;SDS011;23316;50.718;7.328;2023-04-15T15:18:51;11.27;;;9.02;;